PWSweather.com
Personal Weather Stations
Station Observations
KNHRINDG3
Converse Meadow Pond, Rindge, NH 03461

Converse Meadow PondRindge, NH 03461

Lat: 42.74, Lon: -71.98

Elevation: 1060

Station Type: Davis Vantage Pro 2

http://nhwoodworker.com/weather/index.php

Latest ConditionsUpdated 11:40:02 AM EST Friday, Nov 28, 2014
Currently Today's Max Today's Min Today's Average
Temperature 22.9°F-5.1°C 25.2°F-3.8°C 21.7°F-5.7°C 24.0°F-4.4°C
Dew Point 21.9°F-5.6°C 24.0°F-4.4°C 20.2°F-6.6°C 22.8°F-5.1°C
Winds Calm Calm 1.2 mph E1.9 kmh E - 0.0 mph 0.0 kmh
Wind Gusts -- 1.2 mph1.9 kmh - -
Humidity 96% 96% 93% 95%
Pressure 30.06 in1017.9 mb 30.08 in1018.6 mb 29.98 in1015.2 mb -
Hour Temp Dew Point Humidity Winds Wind Gusts Pressure Precip Precip Rate Daily Precip Total
11:40 AM 22.9°F-5.1°C 21.9°F-5.6°C 96% Calm Calm -- 30.06 in1017.9 mb 0.00 in0.0 mm 0.00 in/hr0.0 mm/hr 0.00 in0.0 mm
11:30 AM 22.9°F-5.1°C 21.9°F-5.6°C 96% Calm Calm -- 30.06 in1017.9 mb 0.00 in0.0 mm 0.00 in/hr0.0 mm/hr 0.00 in0.0 mm
11:20 AM 22.9°F-5.1°C 21.9°F-5.6°C 96% Calm Calm -- 30.06 in1017.9 mb 0.00 in0.0 mm 0.00 in/hr0.0 mm/hr 0.00 in0.0 mm
11:10 AM 22.9°F-5.1°C 21.9°F-5.6°C 96% Calm Calm -- 30.07 in1018.3 mb 0.00 in0.0 mm 0.00 in/hr0.0 mm/hr 0.00 in0.0 mm
11:00 AM 22.9°F-5.1°C 21.9°F-5.6°C 96% Calm Calm -- 30.07 in1018.3 mb 0.00 in0.0 mm 0.00 in/hr0.0 mm/hr 0.00 in0.0 mm
10:50 AM 22.9°F-5.1°C 21.9°F-5.6°C 96% Calm Calm -- 30.07 in1018.3 mb 0.00 in0.0 mm 0.00 in/hr0.0 mm/hr 0.00 in0.0 mm
10:40 AM 22.9°F-5.1°C 21.9°F-5.6°C 96% Calm Calm -- 30.07 in1018.3 mb 0.00 in0.0 mm 0.00 in/hr0.0 mm/hr 0.00 in0.0 mm
10:30 AM 22.9°F-5.1°C 21.9°F-5.6°C 96% Calm Calm -- 30.08 in1018.6 mb 0.00 in0.0 mm 0.00 in/hr0.0 mm/hr 0.00 in0.0 mm
10:20 AM 22.9°F-5.1°C 21.9°F-5.6°C 96% Calm Calm -- 30.07 in1018.3 mb 0.00 in0.0 mm 0.00 in/hr0.0 mm/hr 0.00 in0.0 mm
10:10 AM 22.9°F-5.1°C 21.9°F-5.6°C 96% Calm Calm -- 30.08 in1018.6 mb 0.00 in0.0 mm 0.00 in/hr0.0 mm/hr 0.00 in0.0 mm
10:00 AM 22.9°F-5.1°C 21.9°F-5.6°C 96% Calm Calm -- 30.08 in1018.6 mb 0.00 in0.0 mm 0.00 in/hr0.0 mm/hr 0.00 in0.0 mm
09:50 AM 22.9°F-5.1°C 21.9°F-5.6°C 96% Calm Calm -- 30.08 in1018.6 mb 0.00 in0.0 mm 0.00 in/hr0.0 mm/hr 0.00 in0.0 mm
09:40 AM 22.9°F-5.1°C 21.9°F-5.6°C 96% Calm Calm -- 30.07 in1018.3 mb 0.00 in0.0 mm 0.00 in/hr0.0 mm/hr 0.00 in0.0 mm
09:30 AM 22.9°F-5.1°C 21.9°F-5.6°C 96% Calm Calm -- 30.07 in1018.3 mb 0.00 in0.0 mm 0.00 in/hr0.0 mm/hr 0.00 in0.0 mm
09:20 AM 22.9°F-5.1°C 21.9°F-5.6°C 96% Calm Calm -- 30.07 in1018.3 mb 0.00 in0.0 mm 0.00 in/hr0.0 mm/hr 0.00 in0.0 mm
09:10 AM 22.9°F-5.1°C 21.9°F-5.6°C 96% Calm Calm -- 30.07 in1018.3 mb 0.00 in0.0 mm 0.00 in/hr0.0 mm/hr 0.00 in0.0 mm
09:00 AM 22.9°F-5.1°C 21.9°F-5.6°C 96% Calm Calm -- 30.06 in1017.9 mb 0.00 in0.0 mm 0.00 in/hr0.0 mm/hr 0.00 in0.0 mm
08:50 AM 22.9°F-5.1°C 21.9°F-5.6°C 96% Calm Calm -- 30.06 in1017.9 mb 0.00 in0.0 mm 0.00 in/hr0.0 mm/hr 0.00 in0.0 mm
08:40 AM 22.9°F-5.1°C 21.9°F-5.6°C 96% Calm Calm -- 30.06 in1017.9 mb 0.00 in0.0 mm 0.00 in/hr0.0 mm/hr 0.00 in0.0 mm
08:30 AM 22.9°F-5.1°C 21.9°F-5.6°C 96% Calm Calm -- 30.06 in1017.9 mb 0.00 in0.0 mm 0.00 in/hr0.0 mm/hr 0.00 in0.0 mm
08:20 AM 22.9°F-5.1°C 21.9°F-5.6°C 96% 1.2 mph E1.9 kmh E 1.2 mph1.9 kmh 30.05 in1017.6 mb 0.00 in0.0 mm 0.00 in/hr0.0 mm/hr 0.00 in0.0 mm
08:10 AM 22.6°F-5.2°C 21.3°F-5.9°C 95% Calm Calm -- 30.06 in1017.9 mb 0.00 in0.0 mm 0.00 in/hr0.0 mm/hr 0.00 in0.0 mm
08:00 AM 21.9°F-5.6°C 20.4°F-6.4°C 94% Calm Calm -- 30.06 in1017.9 mb 0.00 in0.0 mm 0.00 in/hr0.0 mm/hr 0.00 in0.0 mm
07:50 AM 21.7°F-5.7°C 20.2°F-6.6°C 94% Calm Calm -- 30.05 in1017.6 mb 0.00 in0.0 mm 0.00 in/hr0.0 mm/hr 0.00 in0.0 mm
07:40 AM 22.0°F-5.6°C 20.3°F-6.5°C 93% Calm Calm -- 30.05 in1017.6 mb 0.00 in0.0 mm 0.00 in/hr0.0 mm/hr 0.00 in0.0 mm
07:30 AM 22.4°F-5.3°C 20.7°F-6.3°C 93% Calm Calm -- 30.05 in1017.6 mb 0.00 in0.0 mm 0.00 in/hr0.0 mm/hr 0.00 in0.0 mm
07:20 AM 23.0°F-5.0°C 21.3°F-5.9°C 93% Calm Calm -- 30.04 in1017.3 mb 0.00 in0.0 mm 0.00 in/hr0.0 mm/hr 0.00 in0.0 mm
07:10 AM 23.5°F-4.7°C 21.8°F-5.7°C 93% Calm Calm -- 30.04 in1017.3 mb 0.00 in0.0 mm 0.00 in/hr0.0 mm/hr 0.00 in0.0 mm
07:00 AM 23.8°F-4.6°C 22.1°F-5.5°C 93% Calm Calm -- 30.04 in1017.3 mb 0.00 in0.0 mm 0.00 in/hr0.0 mm/hr 0.00 in0.0 mm
06:50 AM 23.9°F-4.5°C 22.4°F-5.3°C 94% Calm Calm -- 30.04 in1017.3 mb 0.00 in0.0 mm 0.00 in/hr0.0 mm/hr 0.00 in0.0 mm
06:40 AM 24.0°F-4.4°C 22.5°F-5.3°C 94% Calm Calm -- 30.04 in1017.3 mb 0.00 in0.0 mm 0.00 in/hr0.0 mm/hr 0.00 in0.0 mm
06:30 AM 24.0°F-4.4°C 22.5°F-5.3°C 94% Calm Calm -- 30.04 in1017.3 mb 0.00 in0.0 mm 0.00 in/hr0.0 mm/hr 0.00 in0.0 mm
06:20 AM 24.1°F-4.4°C 22.6°F-5.2°C 94% Calm Calm -- 30.03 in1016.9 mb 0.00 in0.0 mm 0.00 in/hr0.0 mm/hr 0.00 in0.0 mm
06:10 AM 24.1°F-4.4°C 22.6°F-5.2°C 94% Calm Calm -- 30.03 in1016.9 mb 0.00 in0.0 mm 0.00 in/hr0.0 mm/hr 0.00 in0.0 mm
06:00 AM 24.2°F-4.3°C 22.7°F-5.2°C 94% Calm Calm -- 30.02 in1016.6 mb 0.00 in0.0 mm 0.00 in/hr0.0 mm/hr 0.00 in0.0 mm
05:50 AM 24.2°F-4.3°C 23.0°F-5.0°C 95% Calm Calm -- 30.02 in1016.6 mb 0.00 in0.0 mm 0.00 in/hr0.0 mm/hr 0.00 in0.0 mm
05:40 AM 24.3°F-4.3°C 23.1°F-4.9°C 95% Calm Calm -- 30.01 in1016.3 mb 0.00 in0.0 mm 0.00 in/hr0.0 mm/hr 0.00 in0.0 mm
05:30 AM 24.4°F-4.2°C 23.2°F-4.9°C 95% Calm Calm -- 30.01 in1016.3 mb 0.00 in0.0 mm 0.00 in/hr0.0 mm/hr 0.00 in0.0 mm
05:20 AM 24.5°F-4.2°C 23.3°F-4.8°C 95% Calm Calm -- 30.01 in1016.3 mb 0.00 in0.0 mm 0.00 in/hr0.0 mm/hr 0.00 in0.0 mm
05:10 AM 24.5°F-4.2°C 23.3°F-4.8°C 95% Calm Calm -- 30.01 in1016.3 mb 0.00 in0.0 mm 0.00 in/hr0.0 mm/hr 0.00 in0.0 mm
05:00 AM 24.5°F-4.2°C 23.3°F-4.8°C 95% Calm Calm -- 30.01 in1016.3 mb 0.00 in0.0 mm 0.00 in/hr0.0 mm/hr 0.00 in0.0 mm
04:50 AM 24.6°F-4.1°C 23.4°F-4.8°C 95% Calm Calm -- 30.01 in1016.3 mb 0.00 in0.0 mm 0.00 in/hr0.0 mm/hr 0.00 in0.0 mm
04:40 AM 24.6°F-4.1°C 23.4°F-4.8°C 95% Calm Calm -- 30.01 in1016.3 mb 0.00 in0.0 mm 0.00 in/hr0.0 mm/hr 0.00 in0.0 mm
04:30 AM 24.7°F-4.1°C 23.5°F-4.7°C 95% Calm Calm -- 30.01 in1016.3 mb 0.00 in0.0 mm 0.00 in/hr0.0 mm/hr 0.00 in0.0 mm
04:20 AM 24.7°F-4.1°C 23.7°F-4.6°C 96% Calm Calm -- 30.01 in1016.3 mb 0.00 in0.0 mm 0.00 in/hr0.0 mm/hr 0.00 in0.0 mm
04:10 AM 24.8°F-4.0°C 23.8°F-4.6°C 96% Calm Calm -- 30.01 in1016.3 mb 0.00 in0.0 mm 0.00 in/hr0.0 mm/hr 0.00 in0.0 mm
04:00 AM 24.8°F-4.0°C 23.8°F-4.6°C 96% Calm Calm -- 30.00 in1015.9 mb 0.00 in0.0 mm 0.00 in/hr0.0 mm/hr 0.00 in0.0 mm
03:50 AM 24.8°F-4.0°C 23.8°F-4.6°C 96% Calm Calm -- 30.00 in1015.9 mb 0.00 in0.0 mm 0.00 in/hr0.0 mm/hr 0.00 in0.0 mm
03:40 AM 24.9°F-3.9°C 23.9°F-4.5°C 96% Calm Calm -- 30.00 in1015.9 mb 0.00 in0.0 mm 0.00 in/hr0.0 mm/hr 0.00 in0.0 mm
03:30 AM 25.2°F-3.8°C 24.0°F-4.4°C 95% Calm Calm -- 30.00 in1015.9 mb 0.00 in0.0 mm 0.00 in/hr0.0 mm/hr 0.00 in0.0 mm
03:20 AM 25.2°F-3.8°C 24.0°F-4.4°C 95% Calm Calm -- 30.00 in1015.9 mb 0.00 in0.0 mm 0.00 in/hr0.0 mm/hr 0.00 in0.0 mm
03:10 AM 25.2°F-3.8°C 24.0°F-4.4°C 95% Calm Calm -- 30.00 in1015.9 mb 0.00 in0.0 mm 0.00 in/hr0.0 mm/hr 0.00 in0.0 mm
03:00 AM 25.2°F-3.8°C 24.0°F-4.4°C 95% Calm Calm -- 30.00 in1015.9 mb 0.00 in0.0 mm 0.00 in/hr0.0 mm/hr 0.00 in0.0 mm
02:50 AM 25.2°F-3.8°C 24.0°F-4.4°C 95% Calm Calm -- 29.99 in1015.6 mb 0.00 in0.0 mm 0.00 in/hr0.0 mm/hr 0.00 in0.0 mm
02:40 AM 25.2°F-3.8°C 24.0°F-4.4°C 95% Calm Calm -- 29.99 in1015.6 mb 0.00 in0.0 mm 0.00 in/hr0.0 mm/hr 0.00 in0.0 mm
02:30 AM 25.2°F-3.8°C 24.0°F-4.4°C 95% Calm Calm -- 29.99 in1015.6 mb 0.00 in0.0 mm 0.00 in/hr0.0 mm/hr 0.00 in0.0 mm
02:20 AM 25.2°F-3.8°C 24.0°F-4.4°C 95% Calm Calm -- 29.99 in1015.6 mb 0.00 in0.0 mm 0.00 in/hr0.0 mm/hr 0.00 in0.0 mm
02:10 AM 25.2°F-3.8°C 24.0°F-4.4°C 95% Calm Calm -- 29.99 in1015.6 mb 0.00 in0.0 mm 0.00 in/hr0.0 mm/hr 0.00 in0.0 mm
02:00 AM 25.2°F-3.8°C 24.0°F-4.4°C 95% Calm Calm -- 30.00 in1015.9 mb 0.00 in0.0 mm 0.00 in/hr0.0 mm/hr 0.00 in0.0 mm
01:50 AM 25.2°F-3.8°C 24.0°F-4.4°C 95% Calm Calm -- 30.00 in1015.9 mb 0.00 in0.0 mm 0.00 in/hr0.0 mm/hr 0.00 in0.0 mm
01:40 AM 25.2°F-3.8°C 24.0°F-4.4°C 95% Calm Calm -- 29.99 in1015.6 mb 0.00 in0.0 mm 0.00 in/hr0.0 mm/hr 0.00 in0.0 mm
01:30 AM 25.2°F-3.8°C 24.0°F-4.4°C 95% Calm Calm -- 29.99 in1015.6 mb 0.00 in0.0 mm 0.00 in/hr0.0 mm/hr 0.00 in0.0 mm
01:20 AM 25.2°F-3.8°C 24.0°F-4.4°C 95% Calm Calm -- 29.99 in1015.6 mb 0.00 in0.0 mm 0.00 in/hr0.0 mm/hr 0.00 in0.0 mm
01:10 AM 25.2°F-3.8°C 24.0°F-4.4°C 95% Calm Calm -- 29.98 in1015.2 mb 0.00 in0.0 mm 0.00 in/hr0.0 mm/hr 0.00 in0.0 mm
01:00 AM 25.2°F-3.8°C 24.0°F-4.4°C 95% Calm Calm -- 29.98 in1015.2 mb 0.00 in0.0 mm 0.00 in/hr0.0 mm/hr 0.00 in0.0 mm
12:50 AM 25.2°F-3.8°C 24.0°F-4.4°C 95% Calm Calm -- 29.98 in1015.2 mb 0.00 in0.0 mm 0.00 in/hr0.0 mm/hr 0.00 in0.0 mm
12:40 AM 25.2°F-3.8°C 24.0°F-4.4°C 95% Calm Calm -- 29.98 in1015.2 mb 0.00 in0.0 mm 0.00 in/hr0.0 mm/hr 0.00 in0.0 mm
12:30 AM 25.2°F-3.8°C 24.0°F-4.4°C 95% Calm Calm -- 29.98 in1015.2 mb 0.00 in0.0 mm 0.00 in/hr0.0 mm/hr 0.00 in0.0 mm
12:20 AM 25.2°F-3.8°C 24.0°F-4.4°C 95% Calm Calm -- 29.98 in1015.2 mb 0.00 in0.0 mm 0.00 in/hr0.0 mm/hr 0.00 in0.0 mm
12:10 AM 25.2°F-3.8°C 24.0°F-4.4°C 95% Calm Calm -- 29.98 in1015.2 mb 0.00 in0.0 mm 0.00 in/hr0.0 mm/hr 0.00 in0.0 mm
12:00 AM 25.2°F-3.8°C 24.0°F-4.4°C 95% Calm Calm -- 29.98 in1015.2 mb 0.00 in0.0 mm 0.00 in/hr0.0 mm/hr 0.00 in0.0 mm